createdAt,value
2022-08-10T00:01:53.351Z,30.97
2022-08-10T00:04:23.515Z,30.93
2022-08-10T00:06:53.903Z,31.01
2022-08-10T00:09:23.645Z,31.21
2022-08-10T00:11:52.666Z,31.26
2022-08-10T00:14:21.326Z,31.30
2022-08-10T00:16:51.325Z,31.60
2022-08-10T00:19:19.882Z,31.32
2022-08-10T00:21:48.847Z,31.46
2022-08-10T00:24:17.554Z,31.56
2022-08-10T00:27:52.727Z,31.72
2022-08-10T00:29:34.756Z,31.60
2022-08-10T00:32:05.135Z,31.82
2022-08-10T00:34:35.076Z,31.89
2022-08-10T00:37:03.626Z,31.89
2022-08-10T00:39:36.080Z,32.02
2022-08-10T00:42:08.274Z,32.04
2022-08-10T00:44:38.749Z,31.97
2022-08-10T00:47:36.233Z,31.92
2022-08-10T00:49:59.931Z,31.90
2022-08-10T00:52:31.050Z,32.14
2022-08-10T00:55:00.991Z,32.01
2022-08-10T00:57:30.185Z,32.22
2022-08-10T01:00:00.281Z,32.19
2022-08-10T01:02:32.869Z,31.96
2022-08-10T01:05:06.320Z,32.18
2022-08-10T01:07:54.048Z,32.32
2022-08-10T01:10:36.260Z,32.60
2022-08-10T01:13:13.315Z,32.46
2022-08-10T01:15:55.369Z,32.46
2022-08-10T01:18:44.287Z,32.65
2022-08-10T01:22:01.043Z,32.54
2022-08-10T01:25:12.806Z,32.72
2022-08-10T01:27:52.881Z,32.52
2022-08-10T01:30:28.252Z,32.58
2022-08-10T01:33:08.516Z,32.50
2022-08-10T01:35:43.801Z,32.67
2022-08-10T01:38:18.336Z,32.56
2022-08-10T01:40:52.952Z,33.04
2022-08-10T01:43:22.834Z,33.12
2022-08-10T01:45:58.036Z,33.19
2022-08-10T01:48:29.354Z,33.22
2022-08-10T01:51:08.720Z,33.03
2022-08-10T01:53:42.985Z,33.17
2022-08-10T01:56:14.396Z,33.30
2022-08-10T01:58:45.199Z,33.05
2022-08-10T02:01:18.759Z,33.33
2022-08-10T02:04:03.830Z,33.30
2022-08-10T02:06:38.462Z,33.23
2022-08-10T02:09:09.108Z,33.39
2022-08-10T02:12:05.501Z,33.29
2022-08-10T02:14:33.256Z,33.74
2022-08-10T02:17:09.142Z,33.42
2022-08-10T02:20:03.150Z,33.58
2022-08-10T02:22:36.308Z,33.46
2022-08-10T02:25:40.705Z,33.64
2022-08-10T02:28:01.265Z,33.36
2022-08-10T02:30:31.412Z,33.68
2022-08-10T02:33:03.787Z,33.88
2022-08-10T02:35:54.460Z,33.85
2022-08-10T02:38:58.845Z,33.47
2022-08-10T02:45:14.849Z,34.10
2022-08-10T02:45:29.920Z,33.88
2022-08-10T02:47:29.365Z,33.93
2022-08-10T02:50:23.767Z,33.99
2022-08-10T02:53:01.357Z,34.00
2022-08-10T02:55:41.647Z,34.21
2022-08-10T02:58:18.349Z,34.41
2022-08-10T03:00:52.212Z,34.36
2022-08-10T03:03:26.352Z,34.97
2022-08-10T03:06:01.727Z,35.07
2022-08-10T03:08:36.384Z,34.72
2022-08-10T03:11:07.869Z,34.78
2022-08-10T03:13:37.331Z,34.62
2022-08-10T03:16:06.533Z,34.67
2022-08-10T03:18:36.014Z,34.78
2022-08-10T03:21:11.413Z,34.84
2022-08-10T03:23:42.531Z,35.48
2022-08-10T03:26:12.793Z,35.07
2022-08-10T03:28:42.812Z,35.46
2022-08-10T03:31:11.961Z,35.44
2022-08-10T03:33:43.463Z,35.66
2022-08-10T03:36:43.365Z,35.28
2022-08-10T03:39:02.343Z,35.49
2022-08-10T03:41:36.614Z,35.46
2022-08-10T03:44:08.611Z,36.19
2022-08-10T03:46:40.826Z,35.64
2022-08-10T03:49:10.556Z,35.91
2022-08-10T03:51:40.829Z,36.07
2022-08-10T03:54:10.060Z,36.19
2022-08-10T03:56:41.102Z,36.42
2022-08-10T03:59:13.632Z,36.65
2022-08-10T04:02:43.822Z,36.75
2022-08-10T04:04:31.916Z,36.74
2022-08-10T04:07:03.723Z,36.49
2022-08-10T04:09:54.414Z,36.61
2022-08-10T04:12:23.447Z,36.66
2022-08-10T04:14:53.266Z,36.58
2022-08-10T04:17:56.266Z,36.92
2022-08-10T04:20:20.485Z,36.90
2022-08-10T04:22:54.329Z,36.99
2022-08-10T04:25:25.226Z,36.96
2022-08-10T04:27:55.204Z,36.85
2022-08-10T04:30:24.339Z,36.92
2022-08-10T04:32:59.813Z,37.13
2022-08-10T04:35:31.082Z,37.35
2022-08-10T04:38:03.224Z,37.12
2022-08-10T04:40:31.946Z,36.84
2022-08-10T04:43:07.492Z,36.93
2022-08-10T04:45:49.823Z,36.87
2022-08-10T04:48:43.325Z,36.88
2022-08-10T04:51:19.003Z,36.58
2022-08-10T04:54:05.184Z,36.71
2022-08-10T04:56:40.357Z,36.28
2022-08-10T04:59:11.737Z,36.27
2022-08-10T05:02:27.881Z,36.42
2022-08-10T05:04:33.765Z,36.09
2022-08-10T05:07:09.457Z,36.18
2022-08-10T05:10:01.662Z,36.14
2022-08-10T05:12:29.543Z,36.04
2022-08-10T05:14:58.156Z,36.03
2022-08-10T05:17:26.557Z,35.80
2022-08-10T05:20:03.278Z,35.86
2022-08-10T05:22:38.321Z,35.50
2022-08-10T05:25:11.692Z,35.83
2022-08-10T05:27:41.344Z,35.44
2022-08-10T05:30:13.807Z,35.49
2022-08-10T05:32:56.658Z,35.30
2022-08-10T05:35:56.286Z,35.12
2022-08-10T05:38:19.229Z,35.02
2022-08-10T05:40:50.779Z,34.84
2022-08-10T05:43:21.849Z,34.68
2022-08-10T05:46:17.288Z,34.46
2022-08-10T05:48:59.513Z,34.33
2022-08-10T05:51:30.794Z,34.02
2022-08-10T05:54:04.461Z,34.05
2022-08-10T05:56:56.100Z,34.11
2022-08-10T06:00:34.921Z,33.39
2022-08-10T06:02:31.545Z,33.09
2022-08-10T06:05:08.371Z,33.38
2022-08-10T06:07:43.824Z,33.10
2022-08-10T06:10:29.980Z,33.01
2022-08-10T06:13:30.757Z,32.64
2022-08-10T06:16:07.282Z,32.83
2022-08-10T06:18:37.140Z,32.26
2022-08-10T06:21:06.631Z,32.27
2022-08-10T06:23:36.208Z,31.94
2022-08-10T06:26:11.504Z,32.19
2022-08-10T06:29:02.006Z,32.25
2022-08-10T06:31:48.458Z,31.90
2022-08-10T06:34:23.702Z,31.96
2022-08-10T06:36:54.215Z,31.39
2022-08-10T06:39:39.301Z,31.28
2022-08-10T06:42:18.348Z,31.40
2022-08-10T06:45:00.290Z,31.29
2022-08-10T06:47:38.462Z,30.86
2022-08-10T06:50:15.151Z,31.00
2022-08-10T06:53:04.594Z,31.42
2022-08-10T06:55:49.775Z,31.33
2022-08-10T06:58:27.939Z,31.03
2022-08-10T07:00:58.698Z,30.54
2022-08-10T07:03:36.180Z,30.70
2022-08-10T07:06:07.678Z,30.85
2022-08-10T07:08:37.878Z,30.18
2022-08-10T07:11:11.985Z,30.32
2022-08-10T07:14:15.731Z,29.98
2022-08-10T07:16:33.042Z,30.25
2022-08-10T07:19:02.810Z,29.75
2022-08-10T07:21:32.456Z,29.51
2022-08-10T07:24:03.118Z,29.25
2022-08-10T07:26:33.378Z,29.17
2022-08-10T07:29:03.320Z,29.16
2022-08-10T07:31:57.273Z,29.17
2022-08-10T07:34:29.282Z,29.01
2022-08-10T07:37:05.054Z,28.64
2022-08-10T07:40:02.909Z,28.83
2022-08-10T07:42:31.668Z,28.60
2022-08-10T07:45:00.920Z,28.51
2022-08-10T07:47:52.357Z,28.49
2022-08-10T07:50:26.131Z,28.09
2022-08-10T07:52:59.675Z,28.11
2022-08-10T07:56:04.595Z,27.93
2022-08-10T07:58:19.662Z,27.60
2022-08-10T08:00:49.427Z,27.66
2022-08-10T08:03:25.874Z,27.59
2022-08-10T08:06:02.854Z,27.41
2022-08-10T08:08:34.701Z,27.00
2022-08-10T08:11:05.492Z,27.12
2022-08-10T08:13:35.154Z,27.31
2022-08-10T08:16:18.138Z,26.89
2022-08-10T08:19:23.587Z,27.10
2022-08-10T08:24:04.585Z,27.14
2022-08-10T08:24:36.910Z,26.91
2022-08-10T08:27:07.875Z,26.82
2022-08-10T08:29:42.072Z,26.74
2022-08-10T08:32:11.967Z,26.69
2022-08-10T08:34:45.257Z,26.43
2022-08-10T08:38:27.279Z,26.31
2022-08-10T08:40:11.722Z,26.27
2022-08-10T08:43:24.129Z,26.31
2022-08-10T08:46:19.670Z,26.40
2022-08-10T08:49:10.796Z,26.32
2022-08-10T08:52:09.675Z,25.78
2022-08-10T08:55:04.295Z,25.95
2022-08-10T08:58:05.259Z,25.85
2022-08-10T09:00:45.115Z,25.63
2022-08-10T09:03:48.279Z,25.51
2022-08-10T09:06:35.772Z,25.51
2022-08-10T09:09:36.512Z,25.21
2022-08-10T09:12:23.726Z,24.88
2022-08-10T09:15:02.026Z,24.35
2022-08-10T09:17:43.388Z,24.40
2022-08-10T09:20:20.431Z,24.27
2022-08-10T09:22:57.935Z,24.15
2022-08-10T09:25:35.807Z,23.97
2022-08-10T09:28:08.507Z,23.75
2022-08-10T09:31:10.788Z,23.71
2022-08-10T09:36:20.692Z,23.80
2022-08-10T09:36:51.780Z,23.89
2022-08-10T09:40:12.725Z,23.72
2022-08-10T09:42:33.632Z,23.77
2022-08-10T09:45:14.089Z,23.52
2022-08-10T09:48:02.887Z,23.61
2022-08-10T09:51:28.031Z,23.71
2022-08-10T09:53:45.257Z,23.56
2022-08-10T09:56:29.396Z,23.39
2022-08-10T09:59:27.175Z,22.87
2022-08-10T10:02:15.950Z,22.77
2022-08-10T10:04:55.345Z,22.97
2022-08-10T10:07:28.647Z,22.71
2022-08-10T10:10:04.627Z,22.70
2022-08-10T10:12:45.990Z,22.81
2022-08-10T10:15:32.764Z,23.12
2022-08-10T10:18:25.068Z,22.84
2022-08-10T10:21:04.318Z,22.66
2022-08-10T10:24:19.775Z,22.69
2022-08-10T10:26:51.305Z,22.60
2022-08-10T10:29:56.815Z,22.32
2022-08-10T10:32:37.067Z,22.10
2022-08-10T10:35:24.616Z,22.25
2022-08-10T10:38:01.615Z,21.87
2022-08-10T10:40:43.375Z,21.77
2022-08-10T10:43:29.243Z,21.79
2022-08-10T10:46:09.693Z,21.70
2022-08-10T10:48:49.306Z,21.95
2022-08-10T10:51:27.545Z,21.56
2022-08-10T10:54:10.611Z,21.66
2022-08-10T10:56:53.005Z,21.34
2022-08-10T10:59:55.508Z,20.56
2022-08-10T11:02:44.925Z,21.14
2022-08-10T11:05:28.391Z,20.97
2022-08-10T11:08:02.759Z,19.82
2022-08-10T11:10:46.874Z,19.74
2022-08-10T11:14:27.565Z,19.11
2022-08-10T11:16:25.830Z,18.09
2022-08-10T11:19:08.797Z,18.05
2022-08-10T11:21:58.534Z,17.67
2022-08-10T11:24:48.540Z,16.14
2022-08-10T11:27:30.814Z,15.85
2022-08-10T11:30:06.504Z,16.25
2022-08-10T11:32:48.479Z,15.80
2022-08-10T11:35:31.602Z,15.47
2022-08-10T11:38:31.880Z,15.70
2022-08-10T11:41:14.686Z,15.58
2022-08-10T11:44:10.176Z,15.79
2022-08-10T11:46:53.081Z,16.07
2022-08-10T11:49:31.119Z,16.14
2022-08-10T11:52:06.044Z,15.64
2022-08-10T11:54:43.658Z,15.06
2022-08-10T11:57:13.712Z,14.75
2022-08-10T11:59:59.659Z,13.85
2022-08-10T12:02:35.085Z,13.61
2022-08-10T12:05:10.509Z,13.87
2022-08-10T12:10:04.170Z,13.45
2022-08-10T12:10:40.621Z,13.14
2022-08-10T12:13:13.822Z,12.77
2022-08-10T12:15:55.859Z,12.28
2022-08-10T12:18:31.868Z,12.19
2022-08-10T12:21:09.735Z,11.79
2022-08-10T12:24:03.945Z,11.60
2022-08-10T12:26:50.197Z,11.57
2022-08-10T12:29:29.089Z,11.91
2022-08-10T12:32:05.978Z,11.86
2022-08-10T12:34:48.644Z,11.47
2022-08-10T12:37:25.725Z,11.13
2022-08-10T12:40:33.844Z,10.85
2022-08-10T12:44:03.688Z,11.40
2022-08-10T12:46:06.847Z,11.35
2022-08-10T12:48:42.314Z,11.23
2022-08-10T12:51:19.884Z,11.18
2022-08-10T12:53:56.711Z,11.37
2022-08-10T12:56:28.655Z,11.00
2022-08-10T12:59:01.787Z,11.18
2022-08-10T13:02:07.757Z,10.63
2022-08-10T13:04:30.886Z,10.33
2022-08-10T13:07:02.587Z,10.01
2022-08-10T13:09:32.538Z,10.02
2022-08-10T13:12:39.288Z,9.64
2022-08-10T13:15:45.647Z,9.42
2022-08-10T13:17:59.087Z,9.60
2022-08-10T13:20:36.273Z,9.34
2022-08-10T13:23:11.222Z,9.19
2022-08-10T13:25:43.173Z,8.54
2022-08-10T13:28:35.894Z,8.79
2022-08-10T13:31:16.937Z,7.68
2022-08-10T13:34:38.944Z,7.90
2022-08-10T13:36:41.914Z,8.44
2022-08-10T13:39:12.314Z,8.25
2022-08-10T13:41:43.516Z,8.29
2022-08-10T13:44:17.287Z,8.50
2022-08-10T13:46:54.292Z,8.63
2022-08-10T13:49:23.097Z,8.51
2022-08-10T13:51:58.102Z,8.64
2022-08-10T13:54:37.471Z,9.08
2022-08-10T13:57:06.925Z,8.84
2022-08-10T14:00:36.328Z,9.39
2022-08-10T14:02:32.470Z,9.09
2022-08-10T14:05:02.731Z,8.47
2022-08-10T14:07:33.318Z,8.52
2022-08-10T14:10:07.479Z,8.82
2022-08-10T14:12:41.984Z,8.68
2022-08-10T14:15:15.514Z,8.12
2022-08-10T14:17:50.916Z,8.06
2022-08-10T14:20:21.913Z,8.04
2022-08-10T14:22:50.730Z,7.35
2022-08-10T14:25:19.273Z,7.22
2022-08-10T14:28:02.855Z,7.23
2022-08-10T14:30:34.932Z,7.23
2022-08-10T14:33:05.642Z,7.21
2022-08-10T14:36:18.537Z,7.86
2022-08-10T14:38:33.118Z,8.65
2022-08-10T14:41:05.888Z,8.35
2022-08-10T14:43:40.493Z,8.51
2022-08-10T14:46:19.615Z,8.37
2022-08-10T14:48:52.333Z,8.12
2022-08-10T14:51:27.668Z,7.70
2022-08-10T14:54:15.974Z,7.77
2022-08-10T14:56:48.944Z,7.81
2022-08-10T14:59:19.389Z,7.82
2022-08-10T15:02:00.001Z,7.96
2022-08-10T15:04:44.211Z,7.61
2022-08-10T15:07:20.874Z,7.30
2022-08-10T15:10:01.401Z,7.64
2022-08-10T15:12:35.271Z,7.99
2022-08-10T15:15:07.447Z,8.55
2022-08-10T15:17:42.157Z,8.93
2022-08-10T15:20:22.070Z,9.07
2022-08-10T15:22:53.889Z,9.48
2022-08-10T15:25:26.787Z,9.92
2022-08-10T15:28:04.985Z,10.02
2022-08-10T15:30:40.880Z,9.76
2022-08-10T15:34:03.307Z,9.61
2022-08-10T15:36:40.294Z,9.92
2022-08-10T15:39:59.133Z,9.95
2022-08-10T15:42:09.719Z,10.56
2022-08-10T15:44:42.034Z,11.13
2022-08-10T15:47:21.026Z,10.75
2022-08-10T15:49:58.120Z,11.54
2022-08-10T15:52:39.467Z,11.53
2022-08-10T15:55:42.796Z,11.76
2022-08-10T15:58:38.860Z,12.30
2022-08-10T16:02:13.027Z,12.58
2022-08-10T16:04:09.064Z,12.87
2022-08-10T16:06:47.979Z,13.06
2022-08-10T16:10:24.957Z,13.25
2022-08-10T16:12:29.137Z,13.54
2022-08-10T16:15:00.847Z,13.66
2022-08-10T16:17:30.931Z,13.87
2022-08-10T16:20:28.056Z,14.07
2022-08-10T16:23:04.997Z,14.01
2022-08-10T16:25:49.763Z,14.33
2022-08-10T16:28:24.097Z,14.79
2022-08-10T16:30:56.865Z,14.90
2022-08-10T16:33:53.498Z,14.74
2022-08-10T16:36:20.807Z,15.40
2022-08-10T16:38:52.195Z,15.07
2022-08-10T16:42:04.647Z,15.26
2022-08-10T16:44:19.537Z,15.50
2022-08-10T16:46:49.080Z,15.60
2022-08-10T16:49:19.103Z,16.26
2022-08-10T16:51:50.593Z,16.12
2022-08-10T16:54:27.560Z,16.49
2022-08-10T16:57:02.476Z,16.73
2022-08-10T16:59:35.082Z,16.60
2022-08-10T17:02:04.325Z,16.56
2022-08-10T17:04:35.031Z,16.88
2022-08-10T17:07:09.361Z,17.09
2022-08-10T17:09:40.601Z,17.06
2022-08-10T17:12:14.193Z,16.95
2022-08-10T17:14:44.381Z,17.28
2022-08-10T17:17:21.667Z,17.54
2022-08-10T17:19:51.977Z,17.41
2022-08-10T17:22:23.235Z,17.85
2022-08-10T17:24:58.688Z,18.02
2022-08-10T17:28:03.970Z,17.96
2022-08-10T17:30:33.756Z,17.97
2022-08-10T17:33:07.808Z,17.91
2022-08-10T17:35:38.926Z,18.15
2022-08-10T17:38:12.049Z,18.18
2022-08-10T17:40:47.352Z,18.64
2022-08-10T17:44:00.938Z,18.49
2022-08-10T17:46:14.418Z,18.68
2022-08-10T17:48:43.635Z,18.96
2022-08-10T17:51:16.153Z,18.89
2022-08-10T17:53:48.664Z,19.20
2022-08-10T17:56:18.358Z,19.21
2022-08-10T17:58:52.715Z,19.31
2022-08-10T18:01:41.598Z,19.33
2022-08-10T18:04:20.099Z,19.58
2022-08-10T18:06:54.507Z,19.49
2022-08-10T18:09:31.792Z,19.75
2022-08-10T18:12:10.100Z,19.68
2022-08-10T18:14:44.153Z,19.93
2022-08-10T18:17:18.011Z,19.66
2022-08-10T18:19:52.894Z,19.87
2022-08-10T18:22:22.885Z,20.26
2022-08-10T18:24:53.879Z,20.14
2022-08-10T18:27:24.093Z,20.37
2022-08-10T18:30:15.970Z,20.37
2022-08-10T18:32:51.191Z,20.21
2022-08-10T18:35:21.631Z,20.78
2022-08-10T18:37:52.984Z,20.52
2022-08-10T18:40:21.672Z,20.50
2022-08-10T18:44:05.797Z,20.57
2022-08-10T18:45:59.698Z,20.79
2022-08-10T18:48:40.012Z,21.09
2022-08-10T18:51:10.877Z,21.05
2022-08-10T18:53:48.305Z,21.42
2022-08-10T18:56:41.763Z,20.95
2022-08-10T19:00:07.581Z,21.30
2022-08-10T19:03:19.077Z,21.04
2022-08-10T19:06:11.260Z,21.29
2022-08-10T19:09:46.582Z,21.27
2022-08-10T19:12:29.953Z,21.46
2022-08-10T19:15:14.748Z,21.66
2022-08-10T19:18:03.795Z,22.04
2022-08-10T19:20:42.576Z,22.31
2022-08-10T19:23:47.668Z,22.27
2022-08-10T19:26:43.861Z,22.07
2022-08-10T19:30:10.900Z,22.39
2022-08-10T19:32:31.465Z,22.54
2022-08-10T19:35:09.089Z,22.50
2022-08-10T19:38:00.678Z,22.24
2022-08-10T19:40:43.441Z,22.54
2022-08-10T19:43:30.909Z,22.39
2022-08-10T19:46:28.108Z,23.09
2022-08-10T19:49:04.762Z,22.85
2022-08-10T19:51:57.493Z,23.13
2022-08-10T19:54:39.529Z,23.36
2022-08-10T19:57:14.772Z,23.37
2022-08-10T20:00:17.401Z,23.18
2022-08-10T20:02:58.379Z,23.46
2022-08-10T20:05:34.042Z,23.59
2022-08-10T20:08:10.801Z,23.57
2022-08-10T20:10:49.847Z,23.48
2022-08-10T20:13:28.785Z,23.51
2022-08-10T20:16:09.211Z,23.49
2022-08-10T20:18:43.174Z,23.61
2022-08-10T20:21:17.575Z,23.93
2022-08-10T20:23:55.689Z,24.00
2022-08-10T20:26:30.432Z,23.81
2022-08-10T20:29:16.210Z,24.07
2022-08-10T20:31:55.013Z,24.00
2022-08-10T20:34:28.764Z,24.18
2022-08-10T20:37:08.107Z,24.34
2022-08-10T20:39:49.597Z,24.36
2022-08-10T20:42:28.451Z,23.97
2022-08-10T20:45:07.171Z,24.15
2022-08-10T20:47:54.548Z,24.41
2022-08-10T20:50:34.785Z,24.48
2022-08-10T20:53:13.645Z,24.53
2022-08-10T20:55:56.244Z,24.55
2022-08-10T20:58:43.878Z,24.42
2022-08-10T21:01:17.837Z,24.67
2022-08-10T21:04:13.131Z,24.80
2022-08-10T21:07:33.082Z,24.77
2022-08-10T21:10:10.118Z,24.56
2022-08-10T21:12:59.304Z,25.00
2022-08-10T21:15:58.958Z,24.85
2022-08-10T21:18:58.480Z,25.27
2022-08-10T21:25:41.674Z,25.06
2022-08-10T21:25:42.284Z,25.35
2022-08-10T21:28:16.692Z,25.36
2022-08-10T21:31:21.955Z,25.11
2022-08-10T21:34:32.618Z,25.38
2022-08-10T21:37:07.925Z,25.51
2022-08-10T21:39:58.313Z,25.66
2022-08-10T21:43:01.967Z,25.69
2022-08-10T21:46:03.902Z,25.58
2022-08-10T21:49:05.247Z,25.89
2022-08-10T21:52:01.922Z,25.93
2022-08-10T21:55:03.406Z,26.04
2022-08-10T21:58:06.609Z,26.00
2022-08-10T22:04:09.673Z,26.03
2022-08-10T22:06:59.589Z,26.24
2022-08-10T22:09:51.597Z,26.35
2022-08-10T22:12:47.031Z,26.27
2022-08-10T22:15:42.486Z,26.39
2022-08-10T22:19:01.787Z,26.63
2022-08-10T22:22:07.911Z,26.74
2022-08-10T22:25:24.800Z,26.74
2022-08-10T22:28:17.686Z,26.65
2022-08-10T22:34:33.204Z,26.91
2022-08-10T22:37:42.007Z,27.07
2022-08-10T22:40:34.339Z,27.06
2022-08-10T22:43:36.168Z,27.22
2022-08-10T22:46:32.767Z,27.33
2022-08-10T22:49:00.213Z,27.64
2022-08-10T22:51:54.555Z,27.50
2022-08-10T22:54:51.830Z,27.67
2022-08-10T22:57:38.720Z,27.47
2022-08-10T23:00:16.330Z,27.96
2022-08-10T23:02:56.329Z,27.83
2022-08-10T23:05:34.731Z,27.91
2022-08-10T23:08:29.689Z,27.94
2022-08-10T23:11:05.337Z,27.90
2022-08-10T23:13:38.820Z,28.05
2022-08-10T23:16:33.328Z,28.08
2022-08-10T23:19:13.302Z,28.31
2022-08-10T23:22:03.921Z,28.27
2022-08-10T23:24:40.719Z,28.17
2022-08-10T23:27:37.952Z,28.23
2022-08-10T23:30:09.266Z,28.38
2022-08-10T23:32:42.942Z,28.43
2022-08-10T23:36:31.269Z,28.53
2022-08-10T23:38:06.970Z,28.44
2022-08-10T23:40:37.870Z,28.50
2022-08-10T23:43:08.814Z,28.59
2022-08-10T23:45:53.021Z,28.66
2022-08-10T23:48:29.579Z,28.64
2022-08-10T23:51:03.585Z,28.74
2022-08-10T23:53:48.724Z,29.03
2022-08-10T23:56:20.544Z,28.82
2022-08-10T23:58:55.048Z,28.87
